Time;durP1;ratioP1;P1;durP2;ratioP2;P2;SDS_P1;SDS_P2;PMS_P1;PMS_P2;Temp;Humidity;BMP_temperature;BMP_pressure;BME280_temperature;BME280_humidity;BME280_pressure;Samples;Min_cycle;Max_cycle;Signal;HPM_P1;HPM_P2
2023/06/21 00:00:12;;;;;;;16.38;14.50;;;20.60;99.90;;;;;;5050300;28;20120;-69
2023/06/21 00:02:39;;;;;;;14.00;12.18;;;20.70;99.90;;;;;;5050611;28;20408;-69
2023/06/21 00:05:06;;;;;;;14.40;12.25;;;20.50;99.90;;;;;;5050223;28;20066;-69
2023/06/21 00:07:32;;;;;;;12.63;11.32;;;20.50;99.90;;;;;;5049919;28;20512;-69
2023/06/21 00:09:58;;;;;;;13.52;12.23;;;20.50;99.90;;;;;;5033376;28;20420;-69
2023/06/21 00:12:25;;;;;;;14.40;12.25;;;20.90;99.90;;;;;;5050112;28;20129;-69
2023/06/21 00:14:51;;;;;;;14.63;13.20;;;20.80;99.90;;;;;;5050129;28;20052;-69
2023/06/21 00:17:16;;;;;;;14.80;13.23;;;20.40;99.90;;;;;;5049843;28;20045;-68
2023/06/21 00:19:42;;;;;;;14.80;13.30;;;20.70;99.90;;;;;;5049960;28;20037;-68
2023/06/21 00:22:08;;;;;;;15.18;13.57;;;20.20;99.90;;;;;;5050319;28;20508;-68
2023/06/21 00:24:33;;;;;;;13.00;11.70;;;20.20;99.90;;;;;;5050249;28;20561;-69
2023/06/21 00:26:59;;;;;;;18.23;15.65;;;20.50;99.90;;;;;;5049543;28;20120;-69
2023/06/21 00:29:25;;;;;;;17.30;14.63;;;20.60;99.90;;;;;;5050076;28;20040;-68
2023/06/21 00:31:50;;;;;;;15.68;14.07;;;20.40;99.90;;;;;;5049938;28;20041;-69
2023/06/21 00:34:16;;;;;;;16.88;15.07;;;20.70;99.90;;;;;;5053465;28;20043;-69
2023/06/21 00:36:41;;;;;;;20.73;17.55;;;20.40;99.90;;;;;;5054624;28;20033;-69
2023/06/21 00:39:09;;;;;;;15.90;13.65;;;20.10;99.90;;;;;;5053992;28;20033;-68
2023/06/21 00:41:35;;;;;;;18.52;14.95;;;20.50;99.90;;;;;;5053862;28;20040;-69
2023/06/21 00:44:01;;;;;;;15.70;14.00;;;20.50;99.90;;;;;;5054985;28;20060;-69
2023/06/21 00:46:27;;;;;;;19.45;15.98;;;19.90;99.90;;;;;;5053305;28;20076;-69
2023/06/21 00:48:53;;;;;;;24.00;18.95;;;20.30;99.90;;;;;;5053817;28;20572;-69
2023/06/21 00:51:18;;;;;;;21.60;16.13;;;20.70;99.90;;;;;;5036613;28;20037;-69
2023/06/21 00:53:45;;;;;;;21.42;18.08;;;20.40;99.90;;;;;;5053548;28;20575;-69
2023/06/21 00:56:11;;;;;;;23.92;18.85;;;20.20;99.90;;;;;;5053109;28;20493;-69
2023/06/21 00:58:37;;;;;;;20.27;17.17;;;20.50;99.90;;;;;;5053575;28;20044;-69
2023/06/21 01:01:02;;;;;;;19.05;16.92;;;20.80;99.90;;;;;;5053763;28;20587;-68
2023/06/21 01:03:28;;;;;;;22.50;18.30;;;20.30;99.90;;;;;;5053485;28;20075;-67
2023/06/21 01:06:17;;;;;;;23.08;17.80;;;20.30;99.90;;;;;;5053276;28;20089;-68
2023/06/21 01:09:03;;;;;;;22.83;19.42;;;20.40;99.90;;;;;;5053216;28;20047;-69
2023/06/21 01:11:32;;;;;;;20.52;17.58;;;20.60;99.90;;;;;;5053286;28;20508;-68
2023/06/21 01:14:30;;;;;;;23.83;19.77;;;20.60;99.90;;;;;;5053459;28;20569;-69
2023/06/21 01:16:56;;;;;;;25.23;19.98;;;20.20;99.90;;;;;;5053028;28;20400;-69
2023/06/21 01:19:53;;;;;;;23.38;18.95;;;20.50;99.90;;;;;;5054430;28;20041;-69
2023/06/21 01:22:24;;;;;;;25.77;17.98;;;20.60;99.90;;;;;;5054484;28;20073;-69
2023/06/21 01:25:06;;;;;;;25.88;22.35;;;20.30;99.90;;;;;;5053042;28;20319;-69
2023/06/21 01:27:43;;;;;;;28.20;22.40;;;20.40;99.90;;;;;;5052571;28;20557;-69
2023/06/21 01:30:11;;;;;;;24.13;20.27;;;20.10;99.90;;;;;;5052828;28;20048;-69
2023/06/21 01:32:37;;;;;;;26.67;21.45;;;20.50;99.90;;;;;;5052943;28;20084;-69
2023/06/21 01:35:04;;;;;;;26.75;21.08;;;20.70;99.90;;;;;;5052988;28;20041;-68
2023/06/21 01:37:30;;;;;;;25.55;20.08;;;20.00;99.90;;;;;;5052708;28;20052;-69
2023/06/21 01:39:56;;;;;;;26.60;20.67;;;20.40;99.90;;;;;;5052856;28;20029;-69
2023/06/21 01:42:21;;;;;;;29.50;22.13;;;20.50;99.90;;;;;;5052946;28;20045;-68
2023/06/21 01:44:48;;;;;;;26.13;19.65;;;20.70;99.90;;;;;;5051695;28;20033;-70
2023/06/21 01:47:14;;;;;;;28.90;23.10;;;20.30;99.90;;;;;;5035393;28;20041;-69
2023/06/21 01:49:41;;;;;;;26.58;21.02;;;20.50;99.90;;;;;;5052360;28;20044;-69
2023/06/21 01:52:07;;;;;;;39.35;24.00;;;20.70;99.90;;;;;;5052565;28;20079;-67
2023/06/21 01:54:35;;;;;;;32.58;25.45;;;20.00;99.90;;;;;;5035934;28;20037;-68
2023/06/21 01:57:03;;;;;;;32.63;25.42;;;19.90;99.90;;;;;;5035503;28;20045;-68
2023/06/21 01:59:29;;;;;;;28.80;24.52;;;20.40;99.90;;;;;;5052498;28;20408;-69
2023/06/21 02:01:57;;;;;;;32.90;26.73;;;20.40;99.90;;;;;;5052499;28;20041;-69
2023/06/21 02:04:25;;;;;;;38.80;29.42;;;;;;;;;;5052526;28;20040;-69
2023/06/21 02:06:53;;;;;;;35.20;28.70;;;;;;;;;;5051767;28;20534;-70
2023/06/21 02:09:20;;;;;;;32.53;26.48;;;;;;;;;;5052400;28;20458;-68
2023/06/21 02:11:46;;;;;;;38.78;29.23;;;;;;;;;;5052389;28;20479;-68
2023/06/21 02:14:12;;;;;;;40.05;31.40;;;;;;;;;;5052101;28;20037;-69
2023/06/21 02:16:38;;;;;;;34.75;27.95;;;;;;;;;;5051738;28;20447;-68
2023/06/21 02:19:05;;;;;;;37.88;30.02;;;;;;;;;;5051775;28;20040;-69
2023/06/21 02:21:31;;;;;;;41.80;31.80;;;;;;;;;;5052048;28;20041;-68
2023/06/21 02:23:57;;;;;;;38.28;30.75;;;;;;;;;;5035423;28;20605;-69
2023/06/21 02:26:23;;;;;;;37.00;29.75;;;;;;;;;;5051626;28;20033;-68
2023/06/21 02:28:49;;;;;;;44.85;31.98;;;;;;;;;;5051671;28;20037;-68
2023/06/21 02:31:15;;;;;;;35.25;30.35;;;;;;;;;;5035072;28;20089;-68
2023/06/21 02:33:44;;;;;;;41.33;32.10;;;;;;;;;;5051648;28;20116;-67
2023/06/21 02:36:11;;;;;;;39.33;31.75;;;;;;;;;;5034797;28;20047;-66
2023/06/21 02:38:37;;;;;;;37.65;30.38;;;;;;;;;;5034897;28;20413;-68
2023/06/21 02:41:03;;;;;;;41.33;32.20;;;;;;;;;;5052934;28;20048;-69
2023/06/21 02:43:29;;;;;;;38.00;29.50;;;;;;;;;;5034909;28;20420;-69
2023/06/21 02:45:56;;;;;;;42.00;32.75;;;;;;;;;;5051695;28;20045;-68
2023/06/21 02:48:22;;;;;;;36.13;28.30;;;;;;;;;;5050946;28;20106;-69
2023/06/21 02:50:48;;;;;;;32.75;27.83;;;;;;;;;;5051543;28;20413;-69
2023/06/21 02:53:14;;;;;;;38.75;29.23;;;;;;;;;;5051311;28;20392;-69
2023/06/21 02:55:40;;;;;;;39.42;31.23;;;;;;;;;;5034653;28;20556;-69
2023/06/21 02:58:06;;;;;;;39.03;30.90;;;;;;;;;;5050554;28;20072;-68
2023/06/21 03:00:33;;;;;;;39.92;29.98;;;;;;;;;;5050930;28;20447;-69
2023/06/21 03:03:02;;;;;;;43.08;32.72;;;;;;;;;;5034846;28;20051;-69
2023/06/21 03:05:29;;;;;;;38.13;30.13;;;;;;;;;;5051362;28;20049;-69
2023/06/21 03:07:55;;;;;;;39.78;31.75;;;;;;;;;;5034181;28;20080;-68
2023/06/21 03:10:21;;;;;;;43.80;30.95;;;;;;;;;;5050797;28;20049;-68
2023/06/21 03:12:47;;;;;;;38.35;29.33;;;;;;;;;;5050918;28;20555;-68
2023/06/21 03:15:14;;;;;;;38.05;29.35;;;;;;;;;;5050762;28;20041;-69
2023/06/21 03:17:40;;;;;;;38.35;28.42;;;;;;;;;;5051158;28;20037;-69
2023/06/21 03:20:12;;;;;;;38.53;28.88;;;;;;;;;;5051006;28;20116;-69
2023/06/21 03:22:38;;;;;;;41.95;29.58;;;;;;;;;;5051219;28;20569;-69
2023/06/21 03:25:04;;;;;;;36.88;25.60;;;;;;;;;;5034088;28;20076;-69
2023/06/21 03:27:30;;;;;;;38.63;27.13;;;;;;;;;;5051010;28;20044;-68
2023/06/21 03:29:56;;;;;;;34.72;24.48;;;;;;;;;;5036203;28;20095;-68
2023/06/21 03:32:22;;;;;;;32.35;23.25;;;;;;;;;;5050588;28;20049;-69
2023/06/21 03:34:48;;;;;;;34.08;25.45;;;;;;;;;;5050884;28;20443;-68
2023/06/21 03:37:14;;;;;;;31.33;22.95;;;;;;;;;;5050065;28;20037;-68
2023/06/21 03:39:40;;;;;;;35.50;23.13;;;;;;;;;;5050409;28;20116;-68
2023/06/21 03:42:06;;;;;;;32.15;22.38;;;;;;;;;;5050756;28;20041;-69
2023/06/21 03:44:32;;;;;;;34.38;22.45;;;;;;;;;;5050449;28;20045;-68
2023/06/21 03:46:59;;;;;;;32.35;22.42;;;;;;;;;;5033644;28;20045;-68
2023/06/21 03:49:25;;;;;;;26.77;19.35;;;;;;;;;;5050195;28;20516;-69
2023/06/21 03:51:51;;;;;;;30.08;20.30;;;;;;;;;;5050315;28;20045;-69
2023/06/21 03:54:17;;;;;;;28.58;20.42;;;;;;;;;;5050370;28;20111;-69
2023/06/21 03:56:43;;;;;;;27.55;19.42;;;;;;;;;;5050974;28;20115;-69
2023/06/21 03:59:09;;;;;;;28.88;18.98;;;;;;;;;;5050296;28;20416;-69
2023/06/21 04:01:35;;;;;;;28.65;21.40;;;;;;;;;;5050504;28;20048;-69
2023/06/21 04:04:01;;;;;;;31.60;20.83;;;19.40;99.90;;;;;;5050208;28;20052;-69
2023/06/21 04:06:26;;;;;;;30.55;19.27;;;19.10;99.90;;;;;;5049710;28;20493;-69
2023/06/21 04:08:52;;;;;;;26.98;19.85;;;19.00;99.90;;;;;;5049323;28;20378;-69
2023/06/21 04:11:18;;;;;;;33.75;21.23;;;19.30;99.90;;;;;;5049961;28;20033;-68
2023/06/21 04:13:43;;;;;;;30.65;20.13;;;18.90;99.90;;;;;;5050101;28;20094;-68
2023/06/21 04:16:09;;;;;;;29.15;20.42;;;19.30;99.90;;;;;;5049991;28;20151;-69
2023/06/21 04:18:35;;;;;;;27.50;19.00;;;19.50;99.90;;;;;;5049972;28;20128;-68
2023/06/21 04:21:01;;;;;;;31.80;18.85;;;19.50;99.90;;;;;;5050102;28;20073;-68
2023/06/21 04:23:26;;;;;;;29.48;18.45;;;19.10;99.90;;;;;;5050055;28;20040;-69
2023/06/21 04:25:52;;;;;;;32.13;19.55;;;19.40;99.90;;;;;;5051319;28;20505;-69
2023/06/21 04:28:25;;;;;;;31.52;19.70;;;19.30;99.90;;;;;;5049481;28;20072;-69
2023/06/21 04:30:55;;;;;;;33.47;19.63;;;19.10;99.90;;;;;;5050204;28;20307;-68
2023/06/21 04:33:21;;;;;;;29.63;19.05;;;19.30;99.90;;;;;;5051278;28;20049;-69
2023/06/21 04:35:47;;;;;;;27.00;18.30;;;18.90;99.90;;;;;;5050200;28;20354;-69
2023/06/21 04:38:12;;;;;;;28.48;18.63;;;19.60;99.90;;;;;;5049417;28;20485;-69
2023/06/21 04:40:38;;;;;;;29.83;17.80;;;19.40;99.90;;;;;;5049618;28;20040;-68
2023/06/21 04:43:05;;;;;;;28.00;17.83;;;19.30;99.90;;;;;;5049829;28;20048;-68
2023/06/21 04:45:31;;;;;;;27.60;18.27;;;19.60;99.90;;;;;;5049868;28;20057;-69
2023/06/21 04:47:57;;;;;;;26.05;17.33;;;19.50;99.90;;;;;;5050826;28;20037;-69
2023/06/21 04:50:24;;;;;;;26.92;17.58;;;19.40;99.90;;;;;;5049934;28;20045;-69
2023/06/21 04:52:51;;;;;;;27.55;17.52;;;19.40;99.90;;;;;;5049829;28;20041;-68
2023/06/21 04:55:18;;;;;;;27.95;16.83;;;19.30;99.90;;;;;;5049658;28;20071;-68
2023/06/21 04:57:45;;;;;;;27.63;18.58;;;19.30;99.90;;;;;;5049603;28;20468;-68
2023/06/21 05:00:11;;;;;;;27.95;17.30;;;19.40;99.90;;;;;;5050940;28;20056;-68
2023/06/21 05:02:38;;;;;;;23.67;15.68;;;19.20;99.90;;;;;;5049829;28;20041;-69
2023/06/21 05:05:03;;;;;;;24.67;16.85;;;20.20;99.90;;;;;;5033167;28;20045;-68
2023/06/21 05:07:29;;;;;;;24.05;15.48;;;19.60;99.90;;;;;;5049148;28;20037;-69
2023/06/21 05:09:54;;;;;;;28.02;15.02;;;19.70;99.90;;;;;;5050080;28;20049;-69
2023/06/21 05:12:20;;;;;;;25.60;14.55;;;19.60;99.90;;;;;;5049673;28;20400;-68
2023/06/21 05:14:46;;;;;;;24.17;14.73;;;19.50;99.90;;;;;;5033060;28;20037;-69
2023/06/21 05:17:13;;;;;;;20.70;14.50;;;19.30;99.90;;;;;;5048973;28;20037;-68
2023/06/21 05:19:39;;;;;;;21.40;14.18;;;19.50;99.90;;;;;;5050480;28;20041;-68
2023/06/21 05:22:04;;;;;;;22.63;14.10;;;19.70;99.90;;;;;;5053157;28;20045;-68
2023/06/21 05:24:30;;;;;;;24.35;14.73;;;19.70;99.90;;;;;;5053144;28;20037;-68
2023/06/21 05:26:55;;;;;;;23.50;13.20;;;20.00;99.90;;;;;;5052522;28;20118;-68
2023/06/21 05:29:23;;;;;;;24.38;13.23;;;19.80;99.90;;;;;;5053021;28;20037;-68
2023/06/21 05:31:49;;;;;;;17.58;12.35;;;20.00;99.90;;;;;;5054278;28;20048;-69
2023/06/21 05:34:14;;;;;;;21.35;13.02;;;20.00;99.90;;;;;;5054099;28;20124;-68
2023/06/21 05:36:40;;;;;;;20.92;12.77;;;19.60;99.90;;;;;;5052417;28;20045;-68
2023/06/21 05:39:05;;;;;;;21.30;13.07;;;19.60;99.90;;;;;;5052462;28;20449;-68
2023/06/21 05:41:31;;;;;;;21.33;12.68;;;19.80;99.90;;;;;;5052689;28;20033;-68
2023/06/21 05:43:56;;;;;;;21.55;11.75;;;20.00;99.90;;;;;;5035981;28;20124;-68
2023/06/21 05:46:22;;;;;;;20.73;11.43;;;19.80;99.90;;;;;;5035663;28;20037;-68
2023/06/21 05:48:48;;;;;;;19.60;12.73;;;20.30;99.90;;;;;;5052279;28;20044;-68
2023/06/21 05:51:13;;;;;;;17.55;11.75;;;20.10;99.90;;;;;;5052146;28;20040;-68
2023/06/21 05:53:39;;;;;;;20.55;12.23;;;19.90;99.90;;;;;;5035659;28;20098;-68
2023/06/21 05:56:05;;;;;;;16.10;11.32;;;20.00;99.90;;;;;;5052290;28;20045;-69
2023/06/21 05:58:30;;;;;;;19.58;12.18;;;20.30;99.90;;;;;;5051652;28;20558;-68
2023/06/21 06:00:56;;;;;;;18.75;11.35;;;20.20;99.90;;;;;;5053672;28;20139;-68
2023/06/21 06:03:22;;;;;;;17.02;12.05;;;20.10;99.90;;;;;;5052189;28;20497;-69
2023/06/21 06:05:49;;;;;;;21.23;11.35;;;19.90;99.90;;;;;;5052092;28;20535;-69
2023/06/21 06:08:15;;;;;;;19.55;12.88;;;20.30;99.90;;;;;;5035203;28;20076;-68
2023/06/21 06:10:40;;;;;;;17.73;11.50;;;20.20;99.90;;;;;;5052306;28;20095;-68
2023/06/21 06:13:06;;;;;;;20.80;11.75;;;20.50;99.90;;;;;;5052140;28;20067;-68
2023/06/21 06:15:32;;;;;;;19.45;11.73;;;20.60;99.90;;;;;;5051821;28;20508;-69
2023/06/21 06:17:57;;;;;;;19.00;11.40;;;20.80;99.90;;;;;;5051685;28;20098;-68
2023/06/21 06:20:23;;;;;;;20.27;12.27;;;21.10;99.90;;;;;;5051704;28;20431;-68
2023/06/21 06:22:49;;;;;;;21.60;11.93;;;20.40;99.90;;;;;;5051869;28;20041;-68
2023/06/21 06:25:15;;;;;;;19.38;12.25;;;20.80;99.90;;;;;;5051792;28;20106;-69
2023/06/21 06:27:40;;;;;;;18.17;11.50;;;20.50;99.90;;;;;;5051965;28;20041;-69
2023/06/21 06:30:06;;;;;;;16.83;11.20;;;20.70;99.90;;;;;;5051990;28;20051;-69
2023/06/21 06:32:32;;;;;;;13.80;10.70;;;20.50;99.90;;;;;;5051030;28;20041;-69
2023/06/21 06:34:57;;;;;;;18.58;11.18;;;20.70;99.90;;;;;;5051719;28;20033;-69
2023/06/21 06:37:24;;;;;;;19.88;13.18;;;20.90;99.90;;;;;;5050995;28;20087;-69
2023/06/21 06:39:52;;;;;;;16.50;10.63;;;21.00;99.90;;;;;;5051337;28;20527;-69
2023/06/21 06:42:18;;;;;;;14.48;9.73;;;20.80;99.90;;;;;;5052982;28;20390;-69
2023/06/21 06:44:45;;;;;;;17.00;9.68;;;21.10;99.90;;;;;;5052631;28;20095;-68
2023/06/21 06:47:11;;;;;;;15.95;10.18;;;20.90;99.90;;;;;;5050886;28;20084;-69
2023/06/21 06:49:37;;;;;;;14.63;9.50;;;21.10;99.90;;;;;;5051264;28;20041;-69
2023/06/21 06:52:03;;;;;;;18.27;10.60;;;21.10;99.90;;;;;;5051439;28;20056;-69
2023/06/21 06:54:28;;;;;;;14.65;9.88;;;21.20;99.90;;;;;;5051447;28;20120;-69
2023/06/21 06:56:54;;;;;;;13.57;8.80;;;21.20;99.90;;;;;;5051106;28;20087;-69
2023/06/21 06:59:20;;;;;;;14.55;9.63;;;21.30;99.90;;;;;;5052694;28;20033;-69
2023/06/21 07:01:45;;;;;;;15.18;9.73;;;21.50;99.90;;;;;;5034749;28;20059;-68
2023/06/21 07:04:11;;;;;;;18.48;11.10;;;21.20;99.90;;;;;;5034601;28;20043;-68
2023/06/21 07:06:36;;;;;;;14.82;10.05;;;21.40;99.90;;;;;;5050631;28;20459;-68
2023/06/21 07:09:02;;;;;;;20.23;10.02;;;21.40;99.90;;;;;;5050989;28;20036;-69
2023/06/21 07:11:28;;;;;;;14.77;9.25;;;21.50;99.90;;;;;;5051306;28;20278;-69
2023/06/21 07:13:54;;;;;;;13.68;10.25;;;21.50;99.90;;;;;;5051057;28;20077;-67
2023/06/21 07:16:28;;;;;;;17.17;10.23;;;;;;;;;;5050365;28;20092;-68
2023/06/21 07:18:54;;;;;;;14.02;9.13;;;;;;;;;;5051986;28;20040;-68
2023/06/21 07:21:20;;;;;;;16.60;9.45;;;;;;;;;;5052295;28;20114;-69
2023/06/21 07:23:48;;;;;;;12.50;9.30;;;;;;;;;;5051119;28;20451;-68
2023/06/21 07:26:14;;;;;;;14.90;9.75;;;;;;;;;;5050321;28;20047;-68
2023/06/21 07:28:41;;;;;;;13.18;7.75;;;;;;;;;;5050509;28;20052;-69
2023/06/21 07:31:07;;;;;;;15.15;9.07;;;;;;;;;;5050702;28;20425;-68
2023/06/21 07:33:33;;;;;;;14.05;8.73;;;;;;;;;;5050385;28;20037;-68
2023/06/21 07:35:59;;;;;;;13.02;8.32;;;;;;;;;;5050717;28;20101;-68
2023/06/21 07:38:25;;;;;;;13.55;8.82;;;;;;;;;;5050330;28;20041;-69
2023/06/21 07:40:51;;;;;;;10.32;7.85;;;;;;;;;;5050501;28;20124;-69
2023/06/21 07:43:18;;;;;;;11.38;8.57;;;;;;;;;;5049631;28;20045;-69
2023/06/21 07:45:44;;;;;;;11.60;7.78;;;;;;;;;;5050664;28;20515;-69
2023/06/21 07:48:10;;;;;;;17.10;8.32;;;;;;;;;;5049880;28;20504;-69
2023/06/21 07:50:36;;;;;;;11.48;8.20;;;;;;;;;;5050238;28;20041;-69
2023/06/21 07:53:03;;;;;;;10.82;7.45;;;22.80;99.90;;;;;;5050409;28;20049;-69
2023/06/21 07:55:28;;;;;;;11.43;7.60;;;23.20;99.90;;;;;;5050223;28;20048;-68
2023/06/21 07:57:54;;;;;;;14.80;7.43;;;23.00;99.90;;;;;;5050233;28;20488;-69
2023/06/21 08:00:20;;;;;;;10.10;6.53;;;23.90;99.90;;;;;;5050164;28;20036;-69
2023/06/21 08:02:46;;;;;;;11.80;7.85;;;22.70;99.90;;;;;;5050073;28;20417;-69
2023/06/21 08:05:13;;;;;;;10.15;7.47;;;22.60;99.90;;;;;;5050070;28;20056;-69
2023/06/21 08:07:39;;;;;;;11.13;6.68;;;23.70;99.90;;;;;;5049739;28;20045;-69
2023/06/21 08:10:04;;;;;;;12.18;6.68;;;22.90;99.90;;;;;;5050109;28;20393;-69
2023/06/21 08:12:30;;;;;;;9.27;6.25;;;22.80;99.90;;;;;;5050366;28;20087;-69
2023/06/21 08:14:56;;;;;;;8.75;6.20;;;23.10;99.90;;;;;;5050359;28;20037;-69
2023/06/21 08:17:21;;;;;;;8.20;5.68;;;23.60;99.90;;;;;;5050612;28;20044;-69
2023/06/21 08:19:47;;;;;;;7.88;6.30;;;24.00;99.90;;;;;;5050047;28;20033;-68
2023/06/21 08:22:13;;;;;;;9.80;6.93;;;22.90;99.90;;;;;;5050022;28;20041;-69
2023/06/21 08:24:38;;;;;;;8.35;5.70;;;23.20;99.90;;;;;;5033373;28;20052;-69
2023/06/21 08:27:04;;;;;;;7.45;5.70;;;23.20;99.90;;;;;;5050903;28;20110;-69
2023/06/21 08:29:30;;;;;;;7.70;5.53;;;23.20;99.90;;;;;;5051185;28;20040;-69
2023/06/21 08:31:55;;;;;;;9.48;5.63;;;23.60;99.90;;;;;;5050092;28;20041;-69
2023/06/21 08:34:21;;;;;;;9.18;6.18;;;23.50;99.90;;;;;;5051139;28;20102;-69
2023/06/21 08:36:46;;;;;;;10.18;6.22;;;23.40;99.90;;;;;;5049873;28;20044;-69
2023/06/21 08:39:12;;;;;;;9.18;6.75;;;23.30;99.90;;;;;;5049809;28;20090;-69
2023/06/21 08:41:39;;;;;;;8.25;6.78;;;23.20;99.90;;;;;;5033330;28;20044;-69
2023/06/21 08:44:04;;;;;;;9.98;7.13;;;23.30;99.90;;;;;;5050165;28;20558;-69
2023/06/21 08:46:34;;;;;;;8.30;6.85;;;23.70;99.90;;;;;;5049258;28;20037;-69
2023/06/21 08:49:03;;;;;;;11.65;7.82;;;23.20;99.90;;;;;;5049658;28;20087;-69
2023/06/21 08:51:30;;;;;;;10.57;7.20;;;23.10;99.90;;;;;;5033460;28;20037;-69
2023/06/21 08:54:07;;;;;;;9.27;7.22;;;23.20;99.90;;;;;;5050105;28;20076;-71
2023/06/21 08:56:59;;;;;;;8.85;6.75;;;24.00;99.90;;;;;;5054829;28;20037;-69
2023/06/21 08:59:41;;;;;;;9.50;7.22;;;24.50;99.90;;;;;;5038258;28;20135;-69
2023/06/21 09:02:12;;;;;;;8.75;6.55;;;23.40;99.90;;;;;;5054116;28;20051;-69
2023/06/21 09:04:44;;;;;;;8.25;7.30;;;23.60;99.90;;;;;;5055150;28;20082;-69
2023/06/21 09:07:11;;;;;;;9.77;6.15;;;23.90;99.90;;;;;;5053362;28;20040;-69
2023/06/21 09:09:37;;;;;;;8.48;6.53;;;23.90;99.90;;;;;;5054721;28;20115;-69
2023/06/21 09:12:04;;;;;;;7.65;5.70;;;25.40;99.90;;;;;;5053363;28;20047;-69
2023/06/21 09:14:31;;;;;;;7.15;6.00;;;24.00;99.90;;;;;;5053579;28;20444;-69
2023/06/21 09:17:00;;;;;;;7.85;5.40;;;23.80;99.90;;;;;;5053330;28;20492;-69
2023/06/21 09:19:27;;;;;;;7.55;4.80;;;24.00;99.90;;;;;;5052944;28;20524;-69
2023/06/21 09:21:56;;;;;;;5.53;4.43;;;24.80;99.90;;;;;;5054454;28;20049;-69
2023/06/21 09:24:22;;;;;;;11.13;6.70;;;24.20;99.90;;;;;;5036728;28;20041;-69
2023/06/21 09:26:47;;;;;;;8.50;5.65;;;24.00;99.90;;;;;;5052965;28;20557;-69
2023/06/21 09:29:13;;;;;;;7.80;5.20;;;23.80;99.90;;;;;;5052864;28;20112;-69
2023/06/21 09:31:39;;;;;;;14.50;5.90;;;24.20;99.90;;;;;;5053313;28;20466;-70
2023/06/21 09:34:04;;;;;;;8.80;6.15;;;24.10;99.90;;;;;;5053029;28;20501;-68
2023/06/21 09:36:30;;;;;;;9.02;5.72;;;25.00;99.90;;;;;;5052363;28;20037;-69
2023/06/21 09:39:10;;;;;;;10.23;6.07;;;24.00;99.90;;;;;;5052719;28;20036;-69
2023/06/21 09:41:36;;;;;;;8.80;6.65;;;24.00;99.90;;;;;;5052861;28;20493;-69
2023/06/21 09:44:02;;;;;;;15.60;7.50;;;25.10;99.90;;;;;;5052762;28;20295;-68
2023/06/21 09:46:27;;;;;;;8.85;7.32;;;23.80;99.90;;;;;;5052327;28;20052;-69
2023/06/21 09:48:53;;;;;;;7.95;5.10;;;24.40;99.90;;;;;;5052670;28;20041;-69
2023/06/21 09:51:23;;;;;;;7.35;4.72;;;24.40;99.90;;;;;;5052684;28;20041;-69
2023/06/21 09:53:52;;;;;;;7.82;5.82;;;24.10;99.90;;;;;;5052587;28;20128;-70
2023/06/21 09:56:19;;;;;;;9.23;5.55;;;24.10;99.90;;;;;;5052032;28;20126;-69
2023/06/21 09:58:47;;;;;;;8.10;5.97;;;23.90;99.90;;;;;;5052335;28;20144;-70
2023/06/21 10:01:16;;;;;;;10.20;6.05;;;23.90;99.90;;;;;;5052418;28;20532;-70
2023/06/21 10:03:46;;;;;;;7.00;4.88;;;24.40;99.90;;;;;;5052316;28;20099;-69
2023/06/21 10:06:16;;;;;;;7.65;4.38;;;24.60;99.90;;;;;;5050806;28;20044;-70
2023/06/21 10:08:43;;;;;;;6.60;4.03;;;24.70;99.90;;;;;;5052578;28;20397;-69
2023/06/21 10:11:09;;;;;;;5.80;4.55;;;24.80;99.90;;;;;;5052259;28;20119;-69
2023/06/21 10:13:38;;;;;;;5.90;4.30;;;24.80;99.90;;;;;;5053430;28;20470;-69
2023/06/21 10:16:04;;;;;;;4.75;4.15;;;25.90;99.90;;;;;;5051968;28;20505;-70
2023/06/21 10:18:30;;;;;;;5.43;4.47;;;25.10;99.90;;;;;;5036500;28;20139;-70
2023/06/21 10:21:04;;;;;;;7.85;4.38;;;25.40;99.90;;;;;;5035653;28;20041;-69
2023/06/21 10:23:32;;;;;;;7.80;5.07;;;24.80;99.90;;;;;;5052152;28;20083;-69
2023/06/21 10:26:17;;;;;;;8.32;5.03;;;24.80;99.90;;;;;;5053329;28;20497;-69
2023/06/21 10:28:45;;;;;;;9.75;5.35;;;24.80;99.90;;;;;;5051777;28;20037;-70
2023/06/21 10:31:12;;;;;;;7.35;5.10;;;24.90;99.90;;;;;;5035532;28;20106;-69
2023/06/21 10:33:38;;;;;;;8.55;5.22;;;24.80;99.90;;;;;;5053414;28;20080;-70
2023/06/21 10:36:09;;;;;;;6.97;5.53;;;24.80;99.90;;;;;;5035458;28;20385;-70
2023/06/21 10:38:50;;;;;;;6.65;5.03;;;24.90;99.90;;;;;;5051216;28;20514;-69
2023/06/21 10:41:16;;;;;;;6.50;5.15;;;26.20;99.90;;;;;;5052077;28;20052;-70
2023/06/21 10:43:43;;;;;;;8.52;6.00;;;25.40;99.90;;;;;;5051908;28;20040;-69
2023/06/21 10:46:10;;;;;;;7.43;5.78;;;25.60;99.90;;;;;;5051960;28;20292;-69
2023/06/21 10:48:37;;;;;;;9.30;6.35;;;25.30;99.90;;;;;;5051018;28;20045;-70
2023/06/21 10:51:04;;;;;;;12.73;7.97;;;25.70;99.90;;;;;;5051485;28;20056;-69
2023/06/21 10:53:35;;;;;;;11.68;7.68;;;25.40;99.90;;;;;;5052829;28;20122;-70
2023/06/21 10:56:02;;;;;;;9.50;6.47;;;25.80;99.90;;;;;;5053830;28;20048;-70
2023/06/21 10:58:31;;;;;;;7.78;6.47;;;26.00;99.90;;;;;;5034565;28;20047;-68
2023/06/21 11:00:58;;;;;;;9.35;6.40;;;27.00;99.90;;;;;;5051574;28;20056;-69
2023/06/21 11:03:26;;;;;;;8.70;6.88;;;26.10;99.90;;;;;;5051386;28;20059;-68
2023/06/21 11:06:14;;;;;;;10.38;7.50;;;26.40;99.90;;;;;;5051355;28;20574;-69
2023/06/21 11:08:40;;;;;;;9.40;7.03;;;26.70;99.90;;;;;;5050572;28;20120;-70
2023/06/21 11:11:05;;;;;;;10.25;7.38;;;26.20;99.90;;;;;;5052581;28;20624;-69
2023/06/21 11:13:39;;;;;;;12.07;8.98;;;25.80;99.90;;;;;;5052291;28;20459;-69
2023/06/21 11:16:17;;;;;;;11.52;8.02;;;26.30;99.90;;;;;;5050966;28;20570;-70
2023/06/21 11:18:50;;;;;;;11.77;8.45;;;25.80;99.90;;;;;;5051785;28;20068;-71
2023/06/21 11:21:34;;;;;;;11.25;7.07;;;25.50;99.90;;;;;;5051273;28;20404;-69
2023/06/21 11:24:06;;;;;;;9.65;8.10;;;26.20;99.90;;;;;;5051799;28;20044;-70
2023/06/21 11:27:01;;;;;;;13.38;8.85;;;25.50;99.90;;;;;;5050603;28;20564;-69
2023/06/21 11:29:59;;;;;;;9.65;6.85;;;25.70;99.90;;;;;;5051007;28;20048;-69
2023/06/21 11:32:29;;;;;;;9.38;7.28;;;26.10;99.90;;;;;;5027118;28;20044;-69
2023/06/21 11:34:59;;;;;;;8.38;5.85;;;26.10;99.90;;;;;;5034070;28;20044;-69
2023/06/21 11:37:40;;;;;;;7.63;6.05;;;25.80;99.90;;;;;;5050093;28;20171;-70
2023/06/21 11:40:24;;;;;;;6.55;4.97;;;26.10;99.90;;;;;;5050495;28;20064;-70
2023/06/21 11:42:52;;;;;;;6.57;4.63;;;26.20;99.90;;;;;;5050746;28;20041;-67
2023/06/21 11:45:27;;;;;;;6.05;4.57;;;26.40;99.90;;;;;;5050515;28;20048;-69
2023/06/21 11:48:02;;;;;;;5.82;4.88;;;26.50;99.90;;;;;;5051425;28;20045;-69
2023/06/21 11:50:49;;;;;;;8.38;4.95;;;26.90;99.90;;;;;;5033989;28;20037;-70
2023/06/21 11:53:38;;;;;;;7.35;5.70;;;26.90;99.90;;;;;;5050315;28;20485;-69
2023/06/21 11:56:08;;;;;;;7.85;6.18;;;26.40;99.90;;;;;;5050243;28;20094;-70
2023/06/21 11:58:35;;;;;;;6.20;4.88;;;26.50;99.90;;;;;;5049716;28;20496;-69
2023/06/21 12:01:01;;;;;;;5.43;3.80;;;26.90;99.90;;;;;;5050395;28;20041;-69
2023/06/21 12:03:27;;;;;;;5.63;4.57;;;27.30;99.90;;;;;;5050514;28;20041;-69
2023/06/21 12:05:57;;;;;;;7.35;4.35;;;27.50;99.90;;;;;;5051837;28;20036;-69
2023/06/21 12:08:37;;;;;;;6.32;4.70;;;27.00;99.90;;;;;;5049740;28;20512;-69
2023/06/21 12:11:08;;;;;;;8.80;6.07;;;27.30;99.90;;;;;;5050293;28;20592;-68
2023/06/21 12:13:35;;;;;;;8.73;5.82;;;27.40;99.90;;;;;;5050073;28;20095;-69
2023/06/21 12:16:09;;;;;;;7.63;5.93;;;27.60;99.90;;;;;;5050111;28;20101;-69
2023/06/21 12:18:36;;;;;;;11.25;6.78;;;27.00;99.90;;;;;;5050902;28;20086;-69
2023/06/21 12:21:04;;;;;;;9.50;6.90;;;26.50;99.90;;;;;;5050204;28;20513;-69
2023/06/21 12:23:30;;;;;;;7.88;6.45;;;26.30;99.90;;;;;;5033487;28;20041;-69
2023/06/21 12:26:01;;;;;;;10.60;7.70;;;26.50;99.90;;;;;;5050037;28;20040;-69
2023/06/21 12:28:27;;;;;;;13.38;9.05;;;27.00;99.90;;;;;;5049416;28;20052;-69
2023/06/21 12:31:02;;;;;;;8.98;6.68;;;25.80;99.90;;;;;;5053874;28;20067;-69
2023/06/21 12:33:35;;;;;;;10.82;7.20;;;25.70;99.90;;;;;;5054076;28;20171;-69
2023/06/21 12:36:17;;;;;;;9.93;7.20;;;25.80;99.90;;;;;;5054298;28;20036;-69
2023/06/21 12:38:55;;;;;;;9.18;7.18;;;25.80;99.90;;;;;;5054215;28;20051;-69
2023/06/21 12:41:22;;;;;;;11.90;8.35;;;25.80;99.90;;;;;;5037410;28;20044;-69
2023/06/21 12:43:51;;;;;;;10.25;7.43;;;26.20;99.90;;;;;;5053909;28;20524;-69
2023/06/21 12:46:17;;;;;;;12.77;7.40;;;26.50;99.90;;;;;;5053811;28;20064;-69
2023/06/21 12:48:53;;;;;;;10.35;6.97;;;26.50;99.90;;;;;;5055116;28;20110;-69
2023/06/21 12:51:28;;;;;;;16.30;7.32;;;25.70;99.90;;;;;;5055269;28;20045;-70
2023/06/21 12:53:59;;;;;;;9.63;6.20;;;26.00;99.90;;;;;;5053789;28;20120;-69
2023/06/21 12:56:29;;;;;;;10.90;7.03;;;25.80;99.90;;;;;;5036667;28;20036;-69
2023/06/21 12:58:54;;;;;;;9.45;7.15;;;25.70;99.90;;;;;;5036895;28;20044;-69